Aérodrome :







RETROUVEZ-NOUS SUR...

 
LOGIN :

S'inscrire | Disclaimer

   EN    FR    IT 

 









Légende :    VFR   VFR Marginal   IFR   IFR Intensif   IFR Très Intensif
Visi : 
Plafond : 
>= 8 km
>= 3000ft
5 à 8 km
1000 à 3000 ft
1500m à 5 km
500 à 1000 ft
800 à 1500m
200 à 500 ft
< 800m
< 200 ft
Symboles :   Orages  Brouillard  Fortes neiges  Fortes précipitations  Vent > 20 kt







- Altitude de l'aérodrome : 603 ft
- Code IATA : LEB


KLEB - Lebanon Municipal

DERNIER METAR :
  • 230553Z AUTO 33003KT 6SM -RA BR FEW003 OVC070 13/11 A3000 RMK AO2 SLP151 P0004 60031 T01280111 10189 20128 56014

METARs EXPIRÉS :
  • 230453Z AUTO 03006KT 10SM -RA OVC080 13/11 A3001 RMK AO2 SLP156 P0003 T01330106 402440067
  • 230428Z AUTO 01004KT 6SM -RA BR FEW001 OVC070 14/12 A3002 RMK AO2 P0002 T01390117
  • 230353Z AUTO 03003KT 8SM -RA OVC075 14/12 A3003 RMK AO2 SLP162 P0001 T01390117

TAF KLEB
Valide du 23 à 06h jusqu'au 24 à 06h UTC


230539Z 2306/2406 01004KT P6SM -SHRA OVC080
FM230900 36003KT P6SM -SHRA OVC015
FM231500 VRB03KT P6SM BKN040
FM240000 19008KT P6SM -SHRA OVC025
FIR KZBW / Amérique du Nord



MET'MAP, la Météo Aéronautique d'un coup d'oeil ! - Copyright ORBIFLY Décembre 2007 - Disclaimer

ORBIFLY MET'MAP TEAM :

Programmation & Développement : Alexandra Zaïnal
Conception & Développement : Baudouin d'Aumeries
Co-Programmation & Développement : Marc-Olivier Méhu
Soutien technique & logistique : Manuel Goepfert

Contact : metmap@orbifly.com




SOURCES & CREDITS :

   NOAA